Tulsa, OK (74134)

6:12 AM CDT on October 25, 2014 (GMT -0500)
Battle Creek Golf Course | Change Station
CLOSE
Current Station
Personal Weather Station
Location: Broken Arrow, OK
Elevation: 770 ft
Nearby Weather Stations

Elev 770 ft 36.09 °N, 95.81 °W | Updated 22 seconds ago

Clear
Clear
62.3 °F
Feels Like 62.3 °F
N
1.0
Wind Variable Wind from SE
Gusts 5.0 mph

Today
High -- | Low -- °F
--% Chance of Precip.
Yesterday
High -- | Low -- °F
Precip. -- in
7:39 AM 6:34 PM
Waxing Crescent, 3% visible
Pressure 30.02 in
Visibility 10.0 miles
Clouds Clear
Dew Point 60 °F
Humidity 92%
Rainfall 0.00 in
Snow Depth Not available.
UV 0 out of 12
Pollen 4.00 out of 12
Ozone Good
Flu Activity Sporadic
METAR KTUL 251053Z 18005KT 10SM CLR 18/16 A3004 RMK AO2 SLP165 T01780156

More Conditions Fewer Conditions

Pressure 30.02 in
Visibility 10.0 miles
Clouds Clear
Dew Point 60 °F
Humidity 92%
Rainfall 0.00 in
Snow Depth Not available.
UV 0 out of 12
Pollen 4.00 out of 12
Ozone Good
Flu Activity Sporadic
METAR KTUL 251053Z 18005KT 10SM CLR 18/16 A3004 RMK AO2 SLP165 T01780156

More Conditions Fewer Conditions

10-Day Weather Forecast

Almanac

Astronomy

Oct. 25, 2014 Rise Set
Actual Time 7:39 AM CDT 6:34 PM CDT
Civil Twilight 7:13 AM CDT 7:01 PM CDT
Nautical Twilight 6:42 AM CDT 7:31 PM CDT
Astronomical Twilight 6:13 AM CDT 8:00 PM CDT
Moon 9:16 AM CDT 8:01 PM CDT
Length of Visible Light 11h 48m
Length of Day
10h 55m
Tomorrow will be 2m 6s shorter.
Waxing Crescent, 3% of the Moon is Illuminated
Today
Waxing Crescent
Oct 30
First Quarter
Nov 6
Full
Nov 14
Last Quarter
Nov 22
New

Today's Extremes

State Highs State Lows

Community

WunderPhotos

Upload Photos

1,764,808 photos uploaded!

Nearby

Air Quality

  Air Quality AQ Index Pollutant
Yesterday Good
OZONE
Current Good
OZONE
Saturday Moderate
PM2.5
Saturday Good
OZONE
Sunday Moderate
PM2.5
Sunday Good
OZONE
Monday Moderate
PM2.5
Monday Good
OZONE
Tuesday Moderate
PM2.5
Tuesday Good
OZONE
Wednesday Good
OZONE
Wednesday Good
PM2.5

Snow Depth

Station Depth Elevation
No new snow has been reported.

Earthquake Activity

City Distance Mag. Time & Date
Pawnee, Oklahoma 70 miles 2.6 7:24 PM CDT
2014-10-24
Medford, Oklahoma 111 miles 3.0 2:06 AM CDT
2014-10-23
Pawnee, Oklahoma 71 miles 2.7 1:06 AM CDT
2014-10-23
Luther, Oklahoma 85 miles 2.5 10:36 PM CDT
2014-10-22
Minimum magnitude displayed is 2.5.

Coastal Water Temperatures

Place Temperature
No Stations Reporting

Nearby Weather Stations